General Aviation Weather

Text Reports

Enter one or more of the following location identifiers separated by a space:

Zip Code, Four-Character ICAO or Three-Character IATA airport codes.

METAR - Aviation Routine Weather Report
ETHL - Laupheim,
Updated at 2:20 AM GMT on July 29, 2016 (4:20 AM CEST):
METAR ETHL 290220Z 21003KT 9999 BKN040 BKN080 16/14 Q1018 BLU
TAF - Terminal Area Forecast
ETHL - Laupheim,
Updated at 2:20 AM GMT on July 29, 2016 (4:20 AM CEST):
No TAF is currently available for this location.
Decoded:
No decoded TAF is available.
PIREP - Pilot Weather Report
ETHL - Laupheim,
Updated at 2:20 AM GMT on July 29, 2016 (4:20 AM CEST):
No PIREP is currently available for this location.
AIRMET - Airmens Meteorological Information
ETHL - Laupheim,
Updated at 2:20 AM GMT on July 29, 2016 (4:20 AM CEST):
No AIRMET is currently available for this location.
SIGMET - Significant Meteorological Information
ETHL - Laupheim,
Updated at 2:20 AM GMT on July 29, 2016 (4:20 AM CEST):
No SIGMET is currently available for this location.
NOTAM - Notice to Airmen
ETHL - Laupheim,
Updated at 2:20 AM GMT on July 29, 2016 (4:20 AM CEST):
No NOTAM is currently available for this location.
Forecast Area
ETHL - Laupheim,
Updated at 2:20 AM GMT on July 29, 2016 (4:20 AM CEST):
No NOTAM is currently available for this location.
Aviation Weather Maps